createdAt,value
2018-06-03T00:00:00.457Z,0.00
2018-06-03T00:01:00.457Z,0.00
2018-06-03T00:02:00.460Z,0.00
2018-06-03T00:03:00.464Z,0.00
2018-06-03T00:04:00.464Z,0.00
2018-06-03T00:05:00.463Z,0.00
2018-06-03T00:06:00.466Z,0.00
2018-06-03T00:07:00.467Z,0.00
2018-06-03T00:08:00.473Z,0.00
2018-06-03T00:09:00.470Z,0.00
2018-06-03T00:10:00.472Z,0.00
2018-06-03T00:11:00.475Z,0.00
2018-06-03T00:12:00.479Z,0.00
2018-06-03T00:13:00.479Z,0.00
2018-06-03T00:14:00.479Z,0.00
2018-06-03T00:15:00.479Z,0.00
2018-06-03T00:16:00.480Z,0.00
2018-06-03T00:17:00.480Z,0.00
2018-06-03T00:18:00.483Z,0.00
2018-06-03T00:19:00.488Z,0.00
2018-06-03T00:20:00.486Z,0.00
2018-06-03T00:21:00.486Z,0.00
2018-06-03T00:22:00.488Z,0.00
2018-06-03T00:23:00.494Z,0.00
2018-06-03T00:24:00.492Z,0.00
2018-06-03T00:25:00.493Z,0.00
2018-06-03T00:26:00.494Z,0.00
2018-06-03T00:27:00.496Z,0.00
2018-06-03T00:28:00.497Z,0.00
2018-06-03T00:29:00.502Z,0.00
2018-06-03T00:30:00.501Z,0.00
2018-06-03T00:31:00.501Z,0.00
2018-06-03T00:32:00.505Z,0.00
2018-06-03T00:33:00.503Z,0.00
2018-06-03T00:34:00.506Z,0.00
2018-06-03T00:35:00.507Z,0.00
2018-06-03T00:36:00.509Z,0.00
2018-06-03T00:37:00.508Z,0.00
2018-06-03T00:38:00.510Z,0.00
2018-06-03T00:39:00.512Z,0.00
2018-06-03T00:40:00.512Z,0.00
2018-06-03T00:41:00.514Z,0.00
2018-06-03T00:42:00.518Z,0.00
2018-06-03T00:43:00.518Z,0.00
2018-06-03T00:44:00.520Z,0.00
2018-06-03T00:45:00.520Z,0.00
2018-06-03T00:46:00.521Z,0.00
2018-06-03T00:47:00.524Z,0.00
2018-06-03T00:48:00.524Z,0.00
2018-06-03T00:49:00.527Z,0.00
2018-06-03T00:50:00.528Z,0.00
2018-06-03T00:51:00.529Z,0.00
2018-06-03T00:52:00.531Z,0.00
2018-06-03T00:53:00.530Z,0.00
2018-06-03T00:54:00.535Z,0.00
2018-06-03T00:55:00.533Z,0.00
2018-06-03T00:56:00.534Z,0.00
2018-06-03T00:57:00.536Z,0.00
2018-06-03T00:58:00.537Z,0.00
2018-06-03T00:59:00.540Z,0.00
2018-06-03T01:00:00.540Z,0.00
2018-06-03T01:01:00.541Z,0.00
2018-06-03T01:02:00.542Z,0.00
2018-06-03T01:03:00.544Z,0.00
2018-06-03T01:04:00.546Z,0.00
2018-06-03T01:05:00.545Z,0.00
2018-06-03T01:06:00.548Z,0.00
2018-06-03T01:07:00.549Z,0.00
2018-06-03T01:08:00.550Z,0.00
2018-06-03T01:09:00.551Z,0.00
2018-06-03T01:10:00.553Z,0.00
2018-06-03T01:11:00.554Z,0.00
2018-06-03T01:12:00.556Z,0.00
2018-06-03T01:13:00.555Z,0.00
2018-06-03T01:14:00.558Z,0.00
2018-06-03T01:15:00.558Z,0.00
2018-06-03T01:16:00.561Z,0.00
2018-06-03T01:17:00.561Z,0.00
2018-06-03T01:18:00.562Z,0.00
2018-06-03T01:19:00.564Z,0.00
2018-06-03T01:20:00.567Z,0.00
2018-06-03T01:21:00.565Z,0.00
2018-06-03T01:22:00.569Z,0.00
2018-06-03T01:23:00.569Z,0.00
2018-06-03T01:24:00.570Z,0.00
2018-06-03T01:25:00.574Z,0.00
2018-06-03T01:26:00.573Z,0.00
2018-06-03T01:27:00.573Z,0.00
2018-06-03T01:28:00.575Z,0.00
2018-06-03T01:29:00.575Z,0.00
2018-06-03T01:30:00.579Z,0.00
2018-06-03T01:31:00.578Z,0.00
2018-06-03T01:32:00.581Z,0.00
2018-06-03T01:33:00.580Z,0.00
2018-06-03T01:34:00.581Z,0.00
2018-06-03T01:35:00.587Z,0.00
2018-06-03T01:36:00.585Z,0.00
2018-06-03T01:37:00.586Z,0.00
2018-06-03T01:38:00.586Z,0.00
2018-06-03T01:39:00.588Z,0.00
2018-06-03T01:40:00.590Z,0.00
2018-06-03T01:41:00.590Z,0.00
2018-06-03T01:42:00.592Z,0.00
2018-06-03T01:43:00.593Z,0.00
2018-06-03T01:44:00.594Z,0.00
2018-06-03T01:45:00.594Z,0.00
2018-06-03T01:46:00.595Z,0.00
2018-06-03T01:47:00.598Z,0.00
2018-06-03T01:48:00.597Z,0.00
2018-06-03T01:49:00.598Z,0.00
2018-06-03T01:50:00.615Z,0.00
2018-06-03T01:51:00.601Z,0.00
2018-06-03T01:52:00.602Z,0.00
2018-06-03T01:53:00.603Z,0.00
2018-06-03T01:54:00.605Z,0.00
2018-06-03T01:55:00.605Z,0.00
2018-06-03T01:56:00.614Z,0.00
2018-06-03T01:57:00.607Z,0.00
2018-06-03T01:58:00.609Z,0.00
2018-06-03T01:59:00.609Z,0.00
2018-06-03T02:00:00.611Z,0.00
2018-06-03T02:01:00.611Z,0.00
2018-06-03T02:02:00.612Z,0.00
2018-06-03T02:03:00.614Z,0.00
2018-06-03T02:04:00.615Z,0.00
2018-06-03T02:05:00.616Z,0.00
2018-06-03T02:06:00.619Z,0.00
2018-06-03T02:07:00.617Z,0.00
2018-06-03T02:08:00.618Z,0.00
2018-06-03T02:09:00.619Z,0.00
2018-06-03T02:10:00.619Z,0.00
2018-06-03T02:11:00.622Z,0.00
2018-06-03T02:12:00.623Z,0.00
2018-06-03T02:13:00.624Z,0.00
2018-06-03T02:14:00.625Z,0.00
2018-06-03T02:15:00.626Z,0.00
2018-06-03T02:16:00.628Z,0.00
2018-06-03T02:17:00.627Z,0.00
2018-06-03T02:18:00.631Z,0.00
2018-06-03T02:19:00.631Z,0.00
2018-06-03T02:20:00.631Z,0.00
2018-06-03T02:21:00.630Z,0.00
2018-06-03T02:22:00.634Z,0.00
2018-06-03T02:23:00.632Z,0.00
2018-06-03T02:24:00.633Z,0.00
2018-06-03T02:25:00.634Z,0.00
2018-06-03T02:26:00.636Z,0.00
2018-06-03T02:27:00.637Z,0.00
2018-06-03T02:28:00.638Z,0.00
2018-06-03T02:29:00.640Z,0.00
2018-06-03T02:30:00.639Z,0.00
2018-06-03T02:31:00.640Z,0.00
2018-06-03T02:32:00.641Z,0.00
2018-06-03T02:33:00.641Z,0.00
2018-06-03T02:34:00.643Z,0.00
2018-06-03T02:35:00.643Z,0.00
2018-06-03T02:36:00.648Z,0.00
2018-06-03T02:37:00.646Z,0.00
2018-06-03T02:38:00.645Z,0.00
2018-06-03T02:39:00.648Z,0.00
2018-06-03T02:40:00.649Z,0.00
2018-06-03T02:41:00.648Z,0.00
2018-06-03T02:42:00.649Z,0.00
2018-06-03T02:43:00.651Z,0.00
2018-06-03T02:44:00.651Z,0.00
2018-06-03T02:45:00.651Z,0.00
2018-06-03T02:46:00.652Z,0.00
2018-06-03T02:47:00.653Z,0.00
2018-06-03T02:48:00.655Z,0.00
2018-06-03T02:49:00.655Z,0.00
2018-06-03T02:50:00.656Z,0.00
2018-06-03T02:51:00.657Z,0.00
2018-06-03T02:52:00.661Z,4.00
2018-06-03T02:53:00.657Z,4.00
2018-06-03T02:54:00.663Z,4.00
2018-06-03T02:55:00.660Z,0.00
2018-06-03T02:56:00.665Z,4.00
2018-06-03T02:57:00.667Z,4.00
2018-06-03T02:58:00.662Z,0.00
2018-06-03T02:59:00.662Z,4.00
2018-06-03T03:00:00.664Z,4.00
2018-06-03T03:01:00.664Z,4.00
2018-06-03T03:02:00.666Z,4.00
2018-06-03T03:03:00.666Z,8.00
2018-06-03T03:04:00.667Z,8.00
2018-06-03T03:05:00.666Z,8.00
2018-06-03T03:06:00.671Z,8.00
2018-06-03T03:07:00.668Z,12.00
2018-06-03T03:08:00.669Z,12.00
2018-06-03T03:09:00.670Z,12.00
2018-06-03T03:10:00.670Z,12.00
2018-06-03T03:11:00.672Z,16.00
2018-06-03T03:12:00.671Z,20.00
2018-06-03T03:13:00.671Z,20.00
2018-06-03T03:14:00.673Z,20.00
2018-06-03T03:15:00.678Z,24.00
2018-06-03T03:16:00.685Z,28.00
2018-06-03T03:17:00.675Z,32.00
2018-06-03T03:18:00.676Z,36.00
2018-06-03T03:19:00.677Z,40.00
2018-06-03T03:20:00.678Z,44.00
2018-06-03T03:21:00.678Z,48.00
2018-06-03T03:22:00.678Z,52.00
2018-06-03T03:23:00.679Z,56.00
2018-06-03T03:24:00.680Z,60.00
2018-06-03T03:25:00.679Z,64.00
2018-06-03T03:26:00.682Z,72.00
2018-06-03T03:27:00.686Z,76.00
2018-06-03T03:28:00.683Z,84.00
2018-06-03T03:29:00.683Z,88.00
2018-06-03T03:30:00.685Z,92.00
2018-06-03T03:31:00.683Z,104.00
2018-06-03T03:32:00.686Z,108.00
2018-06-03T03:33:00.688Z,116.00
2018-06-03T03:34:00.690Z,124.00
2018-06-03T03:35:00.686Z,128.00
2018-06-03T03:36:00.688Z,136.00
2018-06-03T03:37:00.687Z,144.00
2018-06-03T03:38:00.689Z,148.00
2018-06-03T03:39:00.689Z,156.00
2018-06-03T03:40:00.691Z,164.00
2018-06-03T03:41:00.691Z,172.00
2018-06-03T03:42:00.690Z,184.00
2018-06-03T03:43:00.693Z,188.00
2018-06-03T03:44:00.693Z,196.00
2018-06-03T03:45:00.692Z,204.00
2018-06-03T03:46:00.694Z,212.00
2018-06-03T03:47:00.697Z,220.00
2018-06-03T03:48:00.695Z,228.00
2018-06-03T03:49:00.694Z,236.00
2018-06-03T03:50:00.698Z,244.00
2018-06-03T03:51:00.697Z,252.00
2018-06-03T03:52:00.697Z,264.00
2018-06-03T03:53:00.698Z,268.00
2018-06-03T03:54:00.701Z,280.00
2018-06-03T03:55:00.699Z,288.00
2018-06-03T03:56:00.703Z,292.00
2018-06-03T03:57:00.698Z,304.00
2018-06-03T03:58:00.701Z,312.00
2018-06-03T03:59:00.700Z,316.00
2018-06-03T04:00:00.702Z,324.00
2018-06-03T04:01:00.702Z,336.00
2018-06-03T04:02:00.707Z,340.00
2018-06-03T04:03:00.703Z,352.00
2018-06-03T04:04:00.704Z,356.00
2018-06-03T04:05:00.704Z,368.00
2018-06-03T04:06:00.704Z,376.00
2018-06-03T04:07:00.705Z,384.00
2018-06-03T04:08:00.706Z,392.00
2018-06-03T04:09:00.707Z,400.00
2018-06-03T04:10:00.705Z,408.00
2018-06-03T04:11:00.707Z,416.00
2018-06-03T04:12:00.709Z,424.00
2018-06-03T04:13:00.708Z,432.00
2018-06-03T04:14:00.711Z,440.00
2018-06-03T04:15:00.710Z,448.00
2018-06-03T04:16:00.711Z,452.00
2018-06-03T04:17:00.710Z,464.00
2018-06-03T04:18:00.710Z,472.00
2018-06-03T04:19:00.712Z,480.00
2018-06-03T04:20:00.714Z,488.00
2018-06-03T04:21:00.712Z,496.00
2018-06-03T04:22:00.713Z,504.00
2018-06-03T04:23:00.716Z,512.00
2018-06-03T04:24:00.715Z,524.00
2018-06-03T04:25:00.715Z,536.00
2018-06-03T04:26:00.716Z,544.00
2018-06-03T04:27:00.716Z,556.00
2018-06-03T04:28:00.717Z,568.00
2018-06-03T04:29:00.716Z,576.00
2018-06-03T04:30:00.717Z,588.00
2018-06-03T04:31:00.719Z,600.00
2018-06-03T04:32:00.719Z,612.00
2018-06-03T04:33:00.720Z,628.00
2018-06-03T04:34:00.719Z,640.00
2018-06-03T04:35:00.721Z,652.00
2018-06-03T04:36:00.722Z,664.00
2018-06-03T04:37:00.721Z,676.00
2018-06-03T04:38:00.723Z,688.00
2018-06-03T04:39:00.723Z,700.00
2018-06-03T04:40:00.724Z,712.00
2018-06-03T04:41:00.725Z,724.00
2018-06-03T04:42:00.725Z,736.00
2018-06-03T04:43:00.729Z,744.00
2018-06-03T04:44:00.728Z,760.00
2018-06-03T04:45:00.726Z,772.00
2018-06-03T04:46:00.727Z,784.00
2018-06-03T04:47:00.728Z,796.00
2018-06-03T04:48:00.729Z,808.00
2018-06-03T04:49:00.730Z,824.00
2018-06-03T04:50:00.731Z,836.00
2018-06-03T04:51:00.732Z,848.00
2018-06-03T04:52:00.733Z,860.00
2018-06-03T04:53:00.736Z,876.00
2018-06-03T04:54:00.738Z,888.00
2018-06-03T04:55:00.771Z,904.00
2018-06-03T04:56:00.735Z,916.00
2018-06-03T04:57:00.735Z,932.00
2018-06-03T04:58:00.737Z,952.00
2018-06-03T04:59:00.738Z,964.00
2018-06-03T05:00:00.740Z,980.00
2018-06-03T05:01:00.741Z,1000.00
2018-06-03T05:02:00.741Z,1016.00
2018-06-03T05:03:00.741Z,1032.00
2018-06-03T05:04:00.743Z,1056.00
2018-06-03T05:05:00.743Z,1072.00
2018-06-03T05:06:00.743Z,1096.00
2018-06-03T05:07:00.746Z,1112.00
2018-06-03T05:08:00.746Z,1132.00
2018-06-03T05:09:00.746Z,1148.00
2018-06-03T05:10:00.752Z,1164.00
2018-06-03T05:11:00.748Z,1180.00
2018-06-03T05:12:00.750Z,1192.00
2018-06-03T05:13:00.750Z,1212.00
2018-06-03T05:14:00.753Z,1224.00
2018-06-03T05:15:00.753Z,1244.00
2018-06-03T05:16:00.754Z,1256.00
2018-06-03T05:17:00.755Z,1272.00
2018-06-03T05:18:00.756Z,1296.00
2018-06-03T05:19:00.758Z,1240.00
2018-06-03T05:20:00.759Z,1324.00
2018-06-03T05:21:00.759Z,1340.00
2018-06-03T05:22:00.761Z,1360.00
2018-06-03T05:23:00.763Z,1372.00
2018-06-03T05:24:00.764Z,1392.00
2018-06-03T05:25:00.764Z,1416.00
2018-06-03T05:26:00.766Z,1436.00
2018-06-03T05:27:00.772Z,1452.00
2018-06-03T05:28:00.768Z,1472.00
2018-06-03T05:29:00.770Z,1496.00
2018-06-03T05:30:00.771Z,1512.00
2018-06-03T05:31:00.772Z,1536.00
2018-06-03T05:32:00.774Z,1556.00
2018-06-03T05:33:00.775Z,1576.00
2018-06-03T05:34:00.776Z,1596.00
2018-06-03T05:35:00.776Z,1612.00
2018-06-03T05:36:00.779Z,1628.00
2018-06-03T05:37:00.780Z,1652.00
2018-06-03T05:38:00.781Z,1664.00
2018-06-03T05:39:00.784Z,1684.00
2018-06-03T05:40:00.784Z,1700.00
2018-06-03T05:41:00.786Z,1720.00
2018-06-03T05:42:00.787Z,1736.00
2018-06-03T05:43:00.789Z,1760.00
2018-06-03T05:44:00.791Z,1776.00
2018-06-03T05:45:00.791Z,1792.00
2018-06-03T05:46:00.795Z,1816.00
2018-06-03T05:47:00.794Z,1836.00
2018-06-03T05:48:00.797Z,1856.00
2018-06-03T05:49:00.797Z,1880.00
2018-06-03T05:50:00.802Z,1900.00
2018-06-03T05:51:00.801Z,1916.00
2018-06-03T05:52:00.806Z,1936.00
2018-06-03T05:53:00.807Z,1960.00
2018-06-03T05:54:00.807Z,1980.00
2018-06-03T05:55:00.808Z,2004.00
2018-06-03T05:56:00.812Z,2024.00
2018-06-03T05:57:00.812Z,2052.00
2018-06-03T05:58:00.813Z,2076.00
2018-06-03T05:59:00.817Z,2096.00
2018-06-03T06:00:00.818Z,2124.00
2018-06-03T06:01:00.820Z,2152.00
2018-06-03T06:02:00.821Z,2180.00
2018-06-03T06:03:00.825Z,2208.00
2018-06-03T06:04:00.826Z,2232.00
2018-06-03T06:05:00.828Z,2268.00
2018-06-03T06:06:00.829Z,2300.00
2018-06-03T06:07:00.831Z,2328.00
2018-06-03T06:08:00.835Z,2360.00
2018-06-03T06:09:00.858Z,2392.00
2018-06-03T06:10:00.837Z,2420.00
2018-06-03T06:11:00.842Z,2452.00
2018-06-03T06:12:00.842Z,2480.00
2018-06-03T06:13:00.846Z,2512.00
2018-06-03T06:14:00.847Z,2536.00
2018-06-03T06:15:00.848Z,2560.00
2018-06-03T06:16:00.851Z,2584.00
2018-06-03T06:17:00.852Z,2604.00
2018-06-03T06:18:00.857Z,2624.00
2018-06-03T06:19:00.859Z,2640.00
2018-06-03T06:20:00.861Z,2640.00
2018-06-03T06:21:00.866Z,2660.00
2018-06-03T06:22:00.864Z,2672.00
2018-06-03T06:23:00.872Z,2676.00
2018-06-03T06:24:00.871Z,2688.00
2018-06-03T06:25:00.872Z,2712.00
2018-06-03T06:26:00.875Z,2728.00
2018-06-03T06:27:00.878Z,2748.00
2018-06-03T06:28:00.881Z,2764.00
2018-06-03T06:29:00.883Z,2784.00
2018-06-03T06:30:00.885Z,2800.00
2018-06-03T06:31:00.885Z,2820.00
2018-06-03T06:32:00.887Z,2848.00
2018-06-03T06:33:00.891Z,2864.00
2018-06-03T06:34:00.893Z,2892.00
2018-06-03T06:35:00.897Z,2904.00
2018-06-03T06:36:00.901Z,2928.00
2018-06-03T06:37:00.902Z,2956.00
2018-06-03T06:38:00.904Z,2980.00
2018-06-03T06:39:00.907Z,3000.00
2018-06-03T06:40:00.915Z,3028.00
2018-06-03T06:41:00.914Z,3044.00
2018-06-03T06:42:00.919Z,3060.00
2018-06-03T06:43:00.920Z,3088.00
2018-06-03T06:44:00.927Z,3104.00
2018-06-03T06:45:00.927Z,3124.00
2018-06-03T06:46:00.932Z,3140.00
2018-06-03T06:47:00.933Z,3160.00
2018-06-03T06:48:00.938Z,3180.00
2018-06-03T06:49:00.940Z,3204.00
2018-06-03T06:50:00.958Z,3216.00
2018-06-03T06:51:00.953Z,3232.00
2018-06-03T06:52:00.952Z,3264.00
2018-06-03T06:53:00.954Z,3276.00
2018-06-03T06:54:00.958Z,3296.00
2018-06-03T06:55:00.963Z,3312.00
2018-06-03T06:56:00.970Z,3332.00
2018-06-03T06:57:00.970Z,3344.00
2018-06-03T06:58:00.972Z,3356.00
2018-06-03T06:59:00.977Z,3372.00
2018-06-03T07:00:00.981Z,3388.00
2018-06-03T07:01:00.984Z,3404.00
2018-06-03T07:02:00.987Z,3416.00
2018-06-03T07:03:00.991Z,3432.00
2018-06-03T07:04:00.996Z,3444.00
2018-06-03T07:05:00.998Z,3456.00
2018-06-03T07:06:01.003Z,3472.00
2018-06-03T07:07:01.008Z,3480.00
2018-06-03T07:08:01.009Z,3492.00
2018-06-03T07:09:01.013Z,3500.00
2018-06-03T07:10:01.018Z,3520.00
2018-06-03T07:11:01.021Z,3536.00
2018-06-03T07:12:01.024Z,3556.00
2018-06-03T07:13:01.030Z,3576.00
2018-06-03T07:14:01.032Z,3588.00
2018-06-03T07:15:01.036Z,3600.00
2018-06-03T07:16:01.041Z,3616.00
2018-06-03T07:17:01.043Z,3632.00
2018-06-03T07:18:01.048Z,3644.00
2018-06-03T07:19:01.055Z,3664.00
2018-06-03T07:20:01.062Z,3684.00
2018-06-03T07:21:01.059Z,3716.00
2018-06-03T07:22:01.064Z,3764.00
2018-06-03T07:23:01.068Z,3904.00
2018-06-03T07:24:01.072Z,4468.00
2018-06-03T07:25:01.079Z,7416.00
2018-06-03T07:26:01.081Z,40096.00
2018-06-03T07:27:01.087Z,73888.00
2018-06-03T07:28:01.095Z,76416.00
2018-06-03T07:29:01.098Z,64000.00
2018-06-03T07:30:01.108Z,87392.00
2018-06-03T07:31:01.112Z,101344.00
2018-06-03T07:32:01.169Z,95104.00
2018-06-03T07:33:01.125Z,95104.00
2018-06-03T07:34:01.133Z,94688.00
2018-06-03T07:35:01.142Z,77408.00
2018-06-03T07:36:01.151Z,54880.00
2018-06-03T07:37:01.159Z,48896.00
2018-06-03T07:38:01.168Z,59648.00
2018-06-03T07:39:01.181Z,64704.00
2018-06-03T07:40:01.190Z,45120.00
2018-06-03T07:41:01.198Z,43840.00
2018-06-03T07:42:01.208Z,31488.00
2018-06-03T07:43:01.219Z,11944.00
2018-06-03T07:44:01.229Z,20032.00
2018-06-03T07:45:01.241Z,20928.00
2018-06-03T07:46:01.246Z,22272.00
2018-06-03T07:47:01.265Z,32192.00
2018-06-03T07:48:01.270Z,27840.00
2018-06-03T07:49:01.287Z,34720.00
2018-06-03T07:50:01.285Z,35328.00
2018-06-03T07:51:01.295Z,17952.00
2018-06-03T07:52:01.304Z,13632.00
2018-06-03T07:53:01.316Z,20960.00
2018-06-03T07:54:01.326Z,46624.00
2018-06-03T07:55:01.334Z,71360.00
2018-06-03T07:56:01.342Z,78240.00
2018-06-03T07:57:01.351Z,87296.00
2018-06-03T07:58:01.359Z,87904.00
2018-06-03T07:59:01.370Z,81472.00
2018-06-03T08:00:01.380Z,83584.00
2018-06-03T08:01:01.393Z,88672.00
2018-06-03T08:02:01.403Z,85632.00
2018-06-03T08:03:01.416Z,74464.00
2018-06-03T08:04:01.428Z,75040.00
2018-06-03T08:05:01.440Z,79392.00
2018-06-03T08:06:01.475Z,79072.00
2018-06-03T08:07:01.466Z,76224.00
2018-06-03T08:08:01.481Z,73504.00
2018-06-03T08:09:01.494Z,77184.00
2018-06-03T08:10:01.508Z,77888.00
2018-06-03T08:11:01.523Z,72768.00
2018-06-03T08:12:01.538Z,71168.00
2018-06-03T08:13:01.550Z,70240.00
2018-06-03T08:14:01.566Z,72288.00
2018-06-03T08:15:01.583Z,73600.00
2018-06-03T08:16:01.598Z,71584.00
2018-06-03T08:17:01.611Z,67680.00
2018-06-03T08:18:01.630Z,76032.00
2018-06-03T08:19:01.641Z,82048.00
2018-06-03T08:20:01.656Z,69824.00
2018-06-03T08:21:01.673Z,69824.00
2018-06-03T08:22:01.688Z,70624.00
2018-06-03T08:23:01.704Z,67648.00
2018-06-03T08:24:01.719Z,69312.00
2018-06-03T08:25:01.735Z,71680.00
2018-06-03T08:26:01.751Z,70848.00
2018-06-03T08:27:01.766Z,65120.00
2018-06-03T08:28:01.783Z,70336.00
2018-06-03T08:29:01.798Z,71040.00
2018-06-03T08:30:01.812Z,65824.00
2018-06-03T08:31:01.829Z,66432.00
2018-06-03T08:32:01.845Z,68064.00
2018-06-03T08:33:01.865Z,67968.00
2018-06-03T08:34:01.874Z,64928.00
2018-06-03T08:35:01.892Z,62240.00
2018-06-03T08:36:01.908Z,63072.00
2018-06-03T08:37:01.924Z,65152.00
2018-06-03T08:38:01.938Z,64736.00
2018-06-03T08:39:01.957Z,63712.00
2018-06-03T08:40:01.973Z,62560.00
2018-06-03T08:41:01.985Z,70496.00
2018-06-03T08:42:02.003Z,68160.00
2018-06-03T08:43:02.018Z,58720.00
2018-06-03T08:44:02.035Z,62560.00
2018-06-03T08:45:02.051Z,64928.00
2018-06-03T08:46:02.066Z,66624.00
2018-06-03T08:47:02.083Z,69216.00
2018-06-03T08:48:02.098Z,66048.00
2018-06-03T08:49:02.115Z,65216.00
2018-06-03T08:50:02.131Z,68416.00
2018-06-03T08:51:02.145Z,64384.00
2018-06-03T08:52:02.166Z,61824.00
2018-06-03T08:53:02.177Z,65024.00
2018-06-03T08:54:02.194Z,64448.00
2018-06-03T08:55:02.211Z,65024.00
2018-06-03T08:56:02.225Z,65760.00
2018-06-03T08:57:02.241Z,65152.00
2018-06-03T08:58:02.260Z,63072.00
2018-06-03T08:59:02.275Z,65216.00
2018-06-03T09:00:02.292Z,66592.00
2018-06-03T09:01:02.308Z,67200.00
2018-06-03T09:02:02.328Z,62976.00
2018-06-03T09:03:02.339Z,61536.00
2018-06-03T09:04:02.357Z,64000.00
2018-06-03T09:05:02.373Z,65856.00
2018-06-03T09:06:02.390Z,64512.00
2018-06-03T09:07:02.407Z,58048.00
2018-06-03T09:08:02.423Z,57888.00
2018-06-03T09:09:02.438Z,57824.00
2018-06-03T09:10:02.454Z,56032.00
2018-06-03T09:11:02.471Z,55776.00
2018-06-03T09:12:02.487Z,59712.00
2018-06-03T09:13:02.548Z,60544.00
2018-06-03T09:14:02.521Z,57088.00
2018-06-03T09:15:02.536Z,52896.00
2018-06-03T09:16:02.553Z,55232.00
2018-06-03T09:17:02.571Z,52224.00
2018-06-03T09:18:02.586Z,51968.00
2018-06-03T09:19:02.602Z,51776.00
2018-06-03T09:20:02.620Z,49312.00
2018-06-03T09:21:02.635Z,48192.00
2018-06-03T09:22:02.652Z,49024.00
2018-06-03T09:23:02.668Z,46976.00
2018-06-03T09:24:02.684Z,46272.00
2018-06-03T09:25:02.721Z,45536.00
2018-06-03T09:26:02.717Z,44672.00
2018-06-03T09:27:02.740Z,47200.00
2018-06-03T09:28:02.760Z,44032.00
2018-06-03T09:29:02.765Z,40768.00
2018-06-03T09:30:02.782Z,42912.00
2018-06-03T09:31:02.801Z,45664.00
2018-06-03T09:32:02.814Z,45184.00
2018-06-03T09:33:02.828Z,41984.00
2018-06-03T09:34:03.075Z,40864.00
2018-06-03T09:35:02.862Z,41120.00
2018-06-03T09:36:02.881Z,40448.00
2018-06-03T09:37:02.892Z,40576.00
2018-06-03T09:38:02.910Z,39392.00
2018-06-03T09:39:02.926Z,36416.00
2018-06-03T09:40:02.941Z,35680.00
2018-06-03T09:41:02.955Z,35296.00
2018-06-03T09:42:02.976Z,36224.00
2018-06-03T09:43:02.988Z,37440.00
2018-06-03T09:44:03.003Z,35616.00
2018-06-03T09:45:03.018Z,34432.00
2018-06-03T09:46:03.036Z,33568.00
2018-06-03T09:47:03.049Z,33184.00
2018-06-03T09:48:03.110Z,32704.00
2018-06-03T09:49:03.081Z,32736.00
2018-06-03T09:50:03.097Z,20864.00
2018-06-03T09:51:03.111Z,9564.00
2018-06-03T09:52:03.129Z,29696.00
2018-06-03T09:53:03.184Z,29792.00
2018-06-03T09:54:03.157Z,31776.00
2018-06-03T09:55:03.171Z,30912.00
2018-06-03T09:56:03.189Z,28320.00
2018-06-03T09:57:03.201Z,25984.00
2018-06-03T09:58:03.216Z,24672.00
2018-06-03T09:59:03.234Z,23936.00
2018-06-03T10:00:03.246Z,24576.00
2018-06-03T10:01:03.260Z,23520.00
2018-06-03T10:02:03.276Z,24736.00
2018-06-03T10:03:03.289Z,23936.00
2018-06-03T10:04:03.306Z,21792.00
2018-06-03T10:05:03.320Z,22688.00
2018-06-03T10:06:03.334Z,20672.00
2018-06-03T10:07:03.349Z,18976.00
2018-06-03T10:08:03.367Z,19488.00
2018-06-03T10:09:03.377Z,20064.00
2018-06-03T10:10:03.397Z,19392.00
2018-06-03T10:11:03.408Z,19296.00
2018-06-03T10:12:03.424Z,16288.00
2018-06-03T10:13:03.437Z,7440.00
2018-06-03T10:14:03.453Z,9472.00
2018-06-03T10:15:03.466Z,4532.00
2018-06-03T10:16:03.497Z,5048.00
2018-06-03T10:17:03.492Z,10244.00
2018-06-03T10:18:03.505Z,12984.00
2018-06-03T10:19:03.519Z,17088.00
2018-06-03T10:20:03.533Z,19808.00
2018-06-03T10:21:03.544Z,5068.00
2018-06-03T10:22:03.559Z,5824.00
2018-06-03T10:23:03.572Z,16640.00
2018-06-03T10:24:03.583Z,7072.00
2018-06-03T10:25:03.595Z,9640.00
2018-06-03T10:26:03.610Z,9004.00
2018-06-03T10:27:03.645Z,8360.00
2018-06-03T10:28:03.633Z,8260.00
2018-06-03T10:29:03.645Z,8288.00
2018-06-03T10:30:03.658Z,8348.00
2018-06-03T10:31:03.671Z,8512.00
2018-06-03T10:32:03.685Z,8860.00
2018-06-03T10:33:03.697Z,8756.00
2018-06-03T10:34:03.714Z,8252.00
2018-06-03T10:35:03.722Z,7888.00
2018-06-03T10:36:03.736Z,7664.00
2018-06-03T10:37:03.748Z,7488.00
2018-06-03T10:38:03.762Z,7416.00
2018-06-03T10:39:03.775Z,7256.00
2018-06-03T10:40:03.789Z,7044.00
2018-06-03T10:41:03.800Z,7040.00
2018-06-03T10:42:03.815Z,7060.00
2018-06-03T10:43:03.827Z,7080.00
2018-06-03T10:44:03.840Z,7192.00
2018-06-03T10:45:03.853Z,7356.00
2018-06-03T10:46:03.866Z,7492.00
2018-06-03T10:47:03.881Z,6648.00
2018-06-03T10:48:03.895Z,7308.00
2018-06-03T10:49:03.905Z,7520.00
2018-06-03T10:50:03.920Z,7496.00
2018-06-03T10:51:03.932Z,7024.00
2018-06-03T10:52:03.945Z,6844.00
2018-06-03T10:53:03.958Z,6896.00
2018-06-03T10:54:03.975Z,6856.00
2018-06-03T10:55:03.987Z,7132.00
2018-06-03T10:56:03.999Z,7224.00
2018-06-03T10:57:04.012Z,7252.00
2018-06-03T10:58:04.025Z,7188.00
2018-06-03T10:59:04.038Z,7276.00
2018-06-03T11:00:04.052Z,7436.00
2018-06-03T11:01:04.065Z,7492.00
2018-06-03T11:02:04.077Z,7688.00
2018-06-03T11:03:04.091Z,7824.00
2018-06-03T11:04:04.104Z,7808.00
2018-06-03T11:05:04.118Z,7752.00
2018-06-03T11:06:04.132Z,7740.00
2018-06-03T11:07:04.146Z,7788.00
2018-06-03T11:08:04.159Z,7952.00
2018-06-03T11:09:04.171Z,8172.00
2018-06-03T11:10:04.185Z,8404.00
2018-06-03T11:11:04.200Z,8452.00
2018-06-03T11:12:04.216Z,8216.00
2018-06-03T11:13:04.226Z,8336.00
2018-06-03T11:14:04.239Z,8292.00
2018-06-03T11:15:04.253Z,7916.00
2018-06-03T11:16:04.265Z,7860.00
2018-06-03T11:17:04.278Z,7772.00
2018-06-03T11:18:04.292Z,7852.00
2018-06-03T11:19:04.305Z,7628.00
2018-06-03T11:20:04.319Z,7544.00
2018-06-03T11:21:04.332Z,7744.00
2018-06-03T11:22:04.345Z,7676.00
2018-06-03T11:23:04.380Z,7708.00
2018-06-03T11:24:04.371Z,7548.00
2018-06-03T11:25:04.382Z,7652.00
2018-06-03T11:26:04.395Z,7480.00
2018-06-03T11:27:04.413Z,7720.00
2018-06-03T11:28:04.423Z,7616.00
2018-06-03T11:29:04.434Z,7888.00
2018-06-03T11:30:04.448Z,7960.00
2018-06-03T11:31:04.461Z,7944.00
2018-06-03T11:32:04.475Z,7744.00
2018-06-03T11:33:04.487Z,7896.00
2018-06-03T11:34:04.499Z,7872.00
2018-06-03T11:35:04.514Z,8128.00
2018-06-03T11:36:04.527Z,8320.00
2018-06-03T11:37:04.541Z,8400.00
2018-06-03T11:38:04.558Z,8240.00
2018-06-03T11:39:04.564Z,8260.00
2018-06-03T11:40:04.581Z,8132.00
2018-06-03T11:41:04.591Z,7964.00
2018-06-03T11:42:04.647Z,7844.00
2018-06-03T11:43:04.617Z,7740.00
2018-06-03T11:44:04.629Z,7432.00
2018-06-03T11:45:04.642Z,7532.00
2018-06-03T11:46:04.655Z,7476.00
2018-06-03T11:47:04.668Z,7700.00
2018-06-03T11:48:04.701Z,7660.00
2018-06-03T11:49:04.692Z,7704.00
2018-06-03T11:50:04.706Z,7804.00
2018-06-03T11:51:04.719Z,7920.00
2018-06-03T11:52:04.731Z,7816.00
2018-06-03T11:53:04.742Z,7932.00
2018-06-03T11:54:04.755Z,7816.00
2018-06-03T11:55:04.770Z,7580.00
2018-06-03T11:56:04.787Z,6876.00
2018-06-03T11:57:04.795Z,6720.00
2018-06-03T11:58:04.826Z,6000.00
2018-06-03T11:59:04.833Z,7100.00
2018-06-03T12:00:04.833Z,6792.00
2018-06-03T12:01:04.844Z,7132.00
2018-06-03T12:02:04.857Z,7060.00
2018-06-03T12:03:04.868Z,7236.00
2018-06-03T12:04:04.883Z,7364.00
2018-06-03T12:05:04.894Z,7740.00
2018-06-03T12:06:04.911Z,8200.00
2018-06-03T12:07:04.918Z,7948.00
2018-06-03T12:08:04.930Z,7420.00
2018-06-03T12:09:04.945Z,7476.00
2018-06-03T12:10:04.955Z,7196.00
2018-06-03T12:11:04.967Z,6884.00
2018-06-03T12:12:04.977Z,6512.00
2018-06-03T12:13:04.989Z,6700.00
2018-06-03T12:14:05.001Z,6304.00
2018-06-03T12:15:05.015Z,5812.00
2018-06-03T12:16:05.025Z,5692.00
2018-06-03T12:17:05.036Z,6144.00
2018-06-03T12:18:05.053Z,5876.00
2018-06-03T12:19:05.059Z,5880.00
2018-06-03T12:20:05.070Z,5984.00
2018-06-03T12:21:05.082Z,6136.00